createdAt,value
2019-05-01T00:02:11.072Z,86.70
2019-05-01T00:04:50.324Z,99.05
2019-05-01T00:07:29.566Z,92.50
2019-05-01T00:10:01.823Z,94.70
2019-05-01T00:12:34.728Z,103.03
2019-05-01T00:15:07.635Z,91.15
2019-05-01T00:17:39.578Z,94.07
2019-05-01T00:20:11.829Z,93.62
2019-05-01T00:22:43.907Z,103.83
2019-05-01T00:25:15.785Z,105.10
2019-05-01T00:27:47.730Z,95.20
2019-05-01T00:30:29.723Z,103.90
2019-05-01T00:32:54.776Z,101.97
2019-05-01T00:35:26.398Z,102.97
2019-05-01T00:37:58.378Z,95.50
2019-05-01T00:40:30.134Z,93.30
2019-05-01T00:43:02.203Z,83.42
2019-05-01T00:45:34.370Z,89.52
2019-05-01T00:48:06.219Z,75.75
2019-05-01T00:50:38.299Z,69.50
2019-05-01T00:53:10.163Z,60.92
2019-05-01T00:55:43.644Z,64.32
2019-05-01T00:58:22.904Z,63.98
2019-05-01T01:01:12.982Z,62.80
2019-05-01T01:03:44.939Z,67.90
2019-05-01T01:06:16.722Z,73.22
2019-05-01T01:08:48.671Z,68.17
2019-05-01T01:11:20.227Z,61.55
2019-05-01T01:13:53.259Z,69.97
2019-05-01T01:16:25.304Z,68.22
2019-05-01T01:18:57.369Z,73.90
2019-05-01T01:21:29.112Z,71.50
2019-05-01T01:24:01.382Z,67.72
2019-05-01T01:26:33.055Z,69.80
2019-05-01T01:29:05.127Z,73.35
2019-05-01T01:31:37.090Z,70.35
2019-05-01T01:34:09.137Z,71.02
2019-05-01T01:36:41.124Z,70.05
2019-05-01T01:39:12.834Z,72.45
2019-05-01T01:41:45.880Z,75.67
2019-05-01T01:44:19.220Z,71.67
2019-05-01T01:46:52.774Z,81.90
2019-05-01T01:49:24.721Z,81.35
2019-05-01T01:51:56.945Z,77.05
2019-05-01T01:54:29.328Z,80.62
2019-05-01T01:57:01.455Z,73.87
2019-05-01T01:59:33.531Z,76.57
2019-05-01T02:02:19.298Z,74.50
2019-05-01T02:05:05.189Z,75.92
2019-05-01T02:07:37.272Z,75.30
2019-05-01T02:10:09.570Z,68.35
2019-05-01T02:12:43.061Z,66.70
2019-05-01T02:15:14.662Z,78.17
2019-05-01T02:17:46.367Z,74.25
2019-05-01T02:20:18.703Z,68.60
2019-05-01T02:22:50.285Z,74.72
2019-05-01T02:25:22.980Z,73.15
2019-05-01T02:28:13.590Z,75.95
2019-05-01T02:30:47.290Z,69.75
2019-05-01T02:33:19.154Z,85.70
2019-05-01T02:35:51.721Z,80.28
2019-05-01T02:38:24.077Z,80.57
2019-05-01T02:40:58.304Z,78.62
2019-05-01T02:46:05.443Z,76.90
2019-05-01T02:48:39.961Z,80.77
2019-05-01T02:51:12.834Z,83.75
2019-05-01T02:53:47.184Z,84.55
2019-05-01T02:56:25.140Z,79.55
2019-05-01T02:58:58.301Z,84.40
2019-05-01T03:01:45.728Z,86.30
2019-05-01T03:04:04.347Z,79.50
2019-05-01T03:06:37.365Z,79.27
2019-05-01T03:09:09.086Z,83.70
2019-05-01T03:11:42.910Z,86.70
2019-05-01T03:14:17.532Z,85.45
2019-05-01T03:16:51.957Z,85.57
2019-05-01T03:19:32.098Z,88.15
2019-05-01T03:22:24.973Z,89.55
2019-05-01T03:24:56.995Z,83.12
2019-05-01T03:27:29.090Z,91.10
2019-05-01T03:30:01.090Z,90.40
2019-05-01T03:32:33.960Z,87.47
2019-05-01T03:35:07.838Z,88.72
2019-05-01T03:37:39.759Z,82.57
2019-05-01T03:40:13.330Z,92.05
2019-05-01T03:42:45.406Z,85.75
2019-05-01T03:45:17.165Z,85.40
2019-05-01T03:47:49.219Z,83.70
2019-05-01T03:50:21.295Z,83.95
2019-05-01T03:52:52.957Z,81.57
2019-05-01T03:55:25.462Z,86.17
2019-05-01T03:57:57.806Z,86.55
2019-05-01T04:00:34.501Z,82.37
2019-05-01T04:03:24.385Z,74.82
2019-05-01T04:05:57.078Z,82.35
2019-05-01T04:08:29.571Z,74.42
2019-05-01T04:11:01.939Z,80.77
2019-05-01T04:13:34.427Z,79.25
2019-05-01T04:16:06.263Z,71.05
2019-05-01T04:18:39.166Z,81.78
2019-05-01T04:21:11.495Z,82.10
2019-05-01T04:23:43.387Z,79.30
2019-05-01T04:26:15.394Z,78.97
2019-05-01T04:28:55.006Z,72.05
2019-05-01T04:31:40.369Z,81.45
2019-05-01T04:34:30.674Z,80.22
2019-05-01T04:37:10.614Z,77.92
2019-05-01T04:39:42.470Z,82.45
2019-05-01T04:42:14.741Z,79.25
2019-05-01T04:44:46.787Z,82.22
2019-05-01T04:47:19.203Z,81.05
2019-05-01T04:49:51.191Z,74.95
2019-05-01T04:52:23.446Z,76.65
2019-05-01T04:54:55.812Z,72.97
2019-05-01T04:57:27.583Z,77.05
2019-05-01T05:00:00.572Z,75.37
2019-05-01T05:02:37.248Z,77.40
2019-05-01T05:05:09.936Z,74.05
2019-05-01T05:07:42.271Z,72.70
2019-05-01T05:10:15.208Z,62.58
2019-05-01T05:12:48.804Z,66.57
2019-05-01T05:15:39.495Z,68.95
2019-05-01T05:18:12.174Z,66.50
2019-05-01T05:20:43.943Z,63.58
2019-05-01T05:23:17.154Z,60.28
2019-05-01T05:25:49.324Z,62.23
2019-05-01T05:28:22.128Z,58.33
2019-05-01T05:30:57.228Z,56.48
2019-05-01T05:33:31.750Z,63.60
2019-05-01T05:36:05.783Z,58.78
2019-05-01T05:38:41.971Z,54.60
2019-05-01T05:41:15.625Z,55.80
2019-05-01T05:43:47.518Z,54.08
2019-05-01T05:46:19.366Z,57.35
2019-05-01T05:48:51.537Z,54.00
2019-05-01T05:51:41.713Z,47.88
2019-05-01T05:54:32.660Z,48.95
2019-05-01T05:57:08.117Z,52.15
2019-05-01T05:59:44.022Z,47.95
2019-05-01T06:02:28.943Z,45.85
2019-05-01T06:05:07.787Z,40.48
2019-05-01T06:07:46.824Z,48.55
2019-05-01T06:10:30.916Z,44.85
2019-05-01T06:13:04.831Z,46.68
2019-05-01T06:18:15.684Z,44.73
2019-05-01T06:20:49.651Z,43.20
2019-05-01T06:23:24.568Z,45.38
2019-05-01T06:26:02.487Z,41.35
2019-05-01T06:28:33.641Z,47.62
2019-05-01T06:31:23.026Z,41.83
2019-05-01T06:33:54.953Z,47.35
2019-05-01T06:36:27.462Z,43.95
2019-05-01T06:39:00.656Z,42.55
2019-05-01T06:41:42.148Z,38.17
2019-05-01T06:44:13.484Z,44.13
2019-05-01T06:46:53.534Z,42.90
2019-05-01T06:49:29.342Z,45.10
2019-05-01T06:52:06.234Z,45.03
2019-05-01T06:54:38.221Z,40.45
2019-05-01T06:57:10.102Z,42.58
2019-05-01T06:59:43.038Z,37.23
2019-05-01T07:02:16.060Z,41.37
2019-05-01T07:04:50.391Z,44.40
2019-05-01T07:07:25.712Z,40.25
2019-05-01T07:09:57.739Z,41.23
2019-05-01T07:12:32.469Z,35.48
2019-05-01T07:15:05.549Z,40.50
2019-05-01T07:17:37.330Z,39.75
2019-05-01T07:20:11.823Z,40.03
2019-05-01T07:22:45.744Z,40.75
2019-05-01T07:25:18.444Z,40.05
2019-05-01T07:27:54.030Z,40.95
2019-05-01T07:30:26.271Z,43.80
2019-05-01T07:32:58.232Z,40.03
2019-05-01T07:35:32.988Z,36.08
2019-05-01T07:38:03.804Z,42.70
2019-05-01T07:40:36.383Z,39.48
2019-05-01T07:43:09.583Z,40.92
2019-05-01T07:45:44.690Z,40.85
2019-05-01T07:48:19.243Z,40.55
2019-05-01T07:50:51.412Z,40.10
2019-05-01T07:53:23.765Z,38.63
2019-05-01T07:55:56.963Z,36.60
2019-05-01T07:58:29.771Z,41.33
2019-05-01T08:01:06.439Z,40.78
2019-05-01T08:03:42.693Z,35.30
2019-05-01T08:06:16.253Z,35.70
2019-05-01T08:08:46.415Z,43.17
2019-05-01T08:11:19.100Z,34.27
2019-05-01T08:13:50.880Z,33.60
2019-05-01T08:16:22.842Z,37.45
2019-05-01T08:19:12.402Z,36.17
2019-05-01T08:21:45.822Z,33.08
2019-05-01T08:24:22.472Z,36.17
2019-05-01T08:26:51.202Z,36.45
2019-05-01T08:29:42.045Z,38.92
2019-05-01T08:32:33.805Z,33.28
2019-05-01T08:35:11.726Z,32.70
2019-05-01T08:37:43.496Z,44.00
2019-05-01T08:40:20.101Z,37.80
2019-05-01T08:42:48.943Z,33.00
2019-05-01T08:45:28.609Z,33.92
2019-05-01T08:48:04.767Z,31.68
2019-05-01T08:50:36.512Z,32.08
2019-05-01T08:53:08.801Z,32.98
2019-05-01T08:55:45.014Z,33.58
2019-05-01T08:58:14.292Z,28.15
2019-05-01T09:00:46.934Z,35.00
2019-05-01T09:03:20.440Z,28.47
2019-05-01T09:05:56.868Z,29.92
2019-05-01T09:08:26.974Z,37.90
2019-05-01T09:11:00.720Z,36.15
2019-05-01T09:13:33.127Z,34.63
2019-05-01T09:16:05.423Z,37.00
2019-05-01T09:18:37.248Z,36.15
2019-05-01T09:21:09.436Z,40.00
2019-05-01T09:23:41.182Z,39.55
2019-05-01T09:26:17.772Z,41.08
2019-05-01T09:28:57.218Z,34.83
2019-05-01T09:31:34.009Z,39.10
2019-05-01T09:34:05.169Z,41.63
2019-05-01T09:36:36.899Z,30.97
2019-05-01T09:39:10.818Z,29.12
2019-05-01T09:41:46.956Z,28.25
2019-05-01T09:44:16.369Z,25.70
2019-05-01T09:46:48.660Z,30.00
2019-05-01T09:49:21.224Z,31.07
2019-05-01T09:52:00.681Z,25.85
2019-05-01T09:54:46.780Z,22.87
2019-05-01T09:57:19.463Z,24.50
2019-05-01T09:59:51.408Z,26.37
2019-05-01T10:02:23.485Z,22.55
2019-05-01T10:04:55.567Z,19.12
2019-05-01T10:07:28.996Z,21.85
2019-05-01T10:10:00.728Z,19.17
2019-05-01T10:12:32.495Z,20.20
2019-05-01T10:15:07.102Z,18.67
2019-05-01T10:17:38.679Z,15.30
2019-05-01T10:20:11.241Z,17.60
2019-05-01T10:22:43.119Z,21.23
2019-05-01T10:25:15.291Z,18.42
2019-05-01T10:27:48.570Z,21.75
2019-05-01T10:30:38.377Z,24.15
2019-05-01T10:33:11.977Z,21.20
2019-05-01T10:36:00.325Z,19.60
2019-05-01T10:38:32.391Z,16.37
2019-05-01T10:41:09.238Z,24.10
2019-05-01T10:43:38.884Z,20.05
2019-05-01T10:46:10.954Z,25.68
2019-05-01T10:48:43.211Z,20.80
2019-05-01T10:51:14.987Z,19.70
2019-05-01T10:53:47.056Z,16.70
2019-05-01T10:56:18.821Z,15.40
2019-05-01T10:58:52.021Z,19.50
2019-05-01T11:01:34.409Z,15.63
2019-05-01T11:04:06.394Z,18.70
2019-05-01T11:06:38.363Z,17.45
2019-05-01T11:09:10.312Z,15.43
2019-05-01T11:11:42.285Z,13.38
2019-05-01T11:14:13.855Z,14.83
2019-05-01T11:16:46.025Z,16.65
2019-05-01T11:19:17.793Z,14.43
2019-05-01T11:21:49.758Z,16.87
2019-05-01T11:24:21.804Z,17.42
2019-05-01T11:26:53.770Z,16.02
2019-05-01T11:29:25.739Z,13.08
2019-05-01T11:32:02.325Z,13.95
2019-05-01T11:34:41.852Z,13.62
2019-05-01T11:37:31.662Z,14.63
2019-05-01T11:40:07.806Z,17.32
2019-05-01T11:42:39.887Z,14.35
2019-05-01T11:45:12.161Z,13.78
2019-05-01T11:47:44.082Z,13.40
2019-05-01T11:50:16.180Z,14.33
2019-05-01T11:52:48.162Z,21.30
2019-05-01T11:55:20.028Z,20.08
2019-05-01T11:57:51.873Z,16.80
2019-05-01T12:00:24.181Z,13.72
2019-05-01T12:02:55.701Z,12.82
2019-05-01T12:05:27.770Z,13.93
2019-05-01T12:07:59.737Z,14.98
2019-05-01T12:10:31.801Z,12.93
2019-05-01T12:13:03.480Z,11.55
2019-05-01T12:15:35.548Z,9.75
2019-05-01T12:18:07.091Z,11.03
2019-05-01T12:20:39.155Z,11.68
2019-05-01T12:23:11.021Z,11.78
2019-05-01T12:25:43.008Z,9.70
2019-05-01T12:28:14.870Z,8.78
2019-05-01T12:30:46.628Z,6.83
2019-05-01T12:33:18.273Z,10.35
2019-05-01T12:35:51.996Z,6.85
2019-05-01T12:38:23.858Z,9.40
2019-05-01T12:41:06.250Z,6.12
2019-05-01T12:43:39.053Z,8.95
2019-05-01T12:46:12.147Z,9.03
2019-05-01T12:48:44.092Z,8.95
2019-05-01T12:51:16.304Z,8.93
2019-05-01T12:53:55.622Z,9.35
2019-05-01T12:56:28.876Z,10.38
2019-05-01T12:59:00.406Z,9.10
2019-05-01T13:01:31.851Z,7.15
2019-05-01T13:04:03.323Z,5.80
2019-05-01T13:06:34.813Z,7.72
2019-05-01T13:09:08.436Z,12.30
2019-05-01T13:11:40.402Z,12.85
2019-05-01T13:14:12.472Z,7.17
2019-05-01T13:16:44.236Z,11.78
2019-05-01T13:19:16.404Z,9.70
2019-05-01T13:21:48.265Z,6.70
2019-05-01T13:24:21.154Z,10.90
2019-05-01T13:26:54.960Z,8.98
2019-05-01T13:29:28.054Z,14.75
2019-05-01T13:32:07.582Z,5.28
2019-05-01T13:34:39.359Z,7.37
2019-05-01T13:37:11.222Z,13.22
2019-05-01T13:39:43.185Z,13.70
2019-05-01T13:42:15.338Z,10.18
2019-05-01T13:44:48.144Z,13.25
2019-05-01T13:47:20.092Z,11.00
2019-05-01T13:49:52.056Z,8.03
2019-05-01T13:52:24.229Z,10.38
2019-05-01T13:54:56.007Z,8.58
2019-05-01T13:57:27.973Z,16.25
2019-05-01T13:59:59.942Z,62.70
2019-05-01T14:02:31.884Z,53.45
2019-05-01T14:05:03.545Z,15.60
2019-05-01T14:07:37.060Z,12.13
2019-05-01T14:10:09.482Z,8.88
2019-05-01T14:12:41.096Z,6.03
2019-05-01T14:15:14.248Z,9.80
2019-05-01T14:17:48.103Z,6.42
2019-05-01T14:20:21.803Z,9.33
2019-05-01T14:22:54.894Z,6.15
2019-05-01T14:25:26.765Z,9.15
2019-05-01T14:27:58.421Z,6.08
2019-05-01T14:30:30.285Z,8.78
2019-05-01T14:33:02.034Z,8.03
2019-05-01T14:35:33.911Z,7.05
2019-05-01T14:38:05.564Z,7.37
2019-05-01T14:40:37.329Z,6.17
2019-05-01T14:43:09.181Z,5.35
2019-05-01T14:45:42.677Z,7.42
2019-05-01T14:48:14.436Z,7.03
2019-05-01T14:50:46.216Z,13.48
2019-05-01T14:53:18.390Z,97.55
2019-05-01T14:55:50.154Z,240.22
2019-05-01T14:58:22.306Z,219.57
2019-05-01T15:00:54.068Z,70.05
2019-05-01T15:03:26.048Z,10.65
2019-05-01T15:05:57.810Z,6.15
2019-05-01T15:08:29.559Z,13.72
2019-05-01T15:11:01.314Z,14.20
2019-05-01T15:13:53.058Z,14.53
2019-05-01T15:16:26.465Z,28.00
2019-05-01T15:19:06.090Z,54.15
2019-05-01T15:21:38.069Z,51.08
2019-05-01T15:24:10.124Z,25.72
2019-05-01T15:26:42.000Z,16.12
2019-05-01T15:29:13.964Z,11.10
2019-05-01T15:31:45.936Z,8.25
2019-05-01T15:34:17.778Z,15.48
2019-05-01T15:36:49.434Z,8.85
2019-05-01T15:39:35.025Z,9.65
2019-05-01T15:42:08.441Z,6.62
2019-05-01T15:44:41.839Z,8.65
2019-05-01T15:47:14.523Z,11.85
2019-05-01T15:49:46.386Z,8.73
2019-05-01T15:52:18.229Z,9.40
2019-05-01T15:54:50.010Z,7.40
2019-05-01T15:57:21.973Z,8.18
2019-05-01T15:59:53.735Z,7.47
2019-05-01T16:02:25.593Z,9.35
2019-05-01T16:04:57.352Z,6.92
2019-05-01T16:07:29.013Z,7.95
2019-05-01T16:10:01.800Z,9.95
2019-05-01T16:12:34.895Z,4.95
2019-05-01T16:15:09.794Z,9.38
2019-05-01T16:17:41.268Z,8.45
2019-05-01T16:20:13.223Z,4.92
2019-05-01T16:22:44.806Z,7.95
2019-05-01T16:25:16.892Z,6.58
2019-05-01T16:27:48.531Z,5.40
2019-05-01T16:30:24.916Z,4.72
2019-05-01T16:32:56.870Z,4.97
2019-05-01T16:35:28.531Z,7.30
2019-05-01T16:38:01.997Z,7.60
2019-05-01T16:40:44.660Z,5.90
2019-05-01T16:43:16.611Z,5.83
2019-05-01T16:45:48.460Z,6.55
2019-05-01T16:48:19.933Z,4.85
2019-05-01T16:50:51.669Z,8.40
2019-05-01T16:53:23.226Z,11.25
2019-05-01T16:55:55.211Z,9.50
2019-05-01T16:58:26.867Z,11.85
2019-05-01T17:01:03.545Z,6.30
2019-05-01T17:03:42.989Z,6.53
2019-05-01T17:06:25.478Z,4.20
2019-05-01T17:09:01.920Z,6.72
2019-05-01T17:11:35.463Z,3.85
2019-05-01T17:14:08.869Z,7.58
2019-05-01T17:16:41.857Z,8.65
2019-05-01T17:19:13.723Z,9.15
2019-05-01T17:21:45.586Z,6.67
2019-05-01T17:24:17.534Z,11.43
2019-05-01T17:26:49.409Z,6.72
2019-05-01T17:29:20.970Z,8.18
2019-05-01T17:31:52.863Z,8.60
2019-05-01T17:34:25.585Z,9.20
2019-05-01T17:36:57.689Z,3.53
2019-05-01T17:39:29.431Z,6.00
2019-05-01T17:42:02.048Z,10.20
2019-05-01T17:44:34.883Z,8.43
2019-05-01T17:47:06.885Z,5.22
2019-05-01T17:49:41.144Z,6.33
2019-05-01T17:52:11.739Z,11.57
2019-05-01T17:54:43.699Z,7.17
2019-05-01T17:57:15.365Z,5.95
2019-05-01T17:59:48.454Z,6.78
2019-05-01T18:02:24.701Z,3.55
2019-05-01T18:04:57.895Z,8.10
2019-05-01T18:07:33.183Z,3.87
2019-05-01T18:10:05.328Z,7.47
2019-05-01T18:12:37.094Z,8.30
2019-05-01T18:15:09.057Z,6.55
2019-05-01T18:17:42.249Z,8.20
2019-05-01T18:20:13.908Z,5.40
2019-05-01T18:22:50.052Z,6.67
2019-05-01T18:25:33.088Z,4.55
2019-05-01T18:28:07.715Z,4.53
2019-05-01T18:30:41.128Z,6.53
2019-05-01T18:33:12.887Z,5.97
2019-05-01T18:35:48.862Z,7.17
2019-05-01T18:38:22.380Z,4.37
2019-05-01T18:40:56.394Z,4.00
2019-05-01T18:43:32.370Z,5.72
2019-05-01T18:46:08.309Z,3.33
2019-05-01T18:48:39.823Z,8.00
2019-05-01T18:51:11.689Z,3.80
2019-05-01T18:53:43.655Z,3.30
2019-05-01T18:56:15.416Z,5.60
2019-05-01T18:58:47.155Z,3.55
2019-05-01T19:01:19.167Z,4.15
2019-05-01T19:03:51.720Z,5.42
2019-05-01T19:06:23.689Z,2.35
2019-05-01T19:08:55.651Z,4.92
2019-05-01T19:11:27.279Z,4.42
2019-05-01T19:13:59.670Z,2.85
2019-05-01T19:16:33.795Z,6.45
2019-05-01T19:19:05.955Z,4.78
2019-05-01T19:21:41.862Z,8.68
2019-05-01T19:24:11.068Z,4.70
2019-05-01T19:26:44.091Z,4.72
2019-05-01T19:29:16.056Z,4.55
2019-05-01T19:31:47.635Z,4.70
2019-05-01T19:34:19.206Z,5.22
2019-05-01T19:36:51.598Z,2.80
2019-05-01T19:39:23.575Z,4.00
2019-05-01T19:41:55.396Z,4.70
2019-05-01T19:44:27.451Z,5.90
2019-05-01T19:46:59.132Z,5.87
2019-05-01T19:49:30.905Z,4.83
2019-05-01T19:52:03.126Z,5.37
2019-05-01T19:54:35.888Z,5.85
2019-05-01T19:57:07.605Z,3.17
2019-05-01T19:59:41.160Z,6.15
2019-05-01T20:02:17.150Z,5.20
2019-05-01T20:04:50.438Z,4.15
2019-05-01T20:07:21.641Z,3.27
2019-05-01T20:09:57.059Z,4.20
2019-05-01T20:12:29.912Z,5.03
2019-05-01T20:15:01.814Z,4.80
2019-05-01T20:17:33.779Z,4.20
2019-05-01T20:20:07.260Z,7.55
2019-05-01T20:22:38.837Z,5.20
2019-05-01T20:25:10.581Z,8.20
2019-05-01T20:27:45.480Z,4.45
2019-05-01T20:30:16.013Z,3.97
2019-05-01T20:32:49.560Z,5.72
2019-05-01T20:35:28.370Z,4.15
2019-05-01T20:37:58.608Z,3.73
2019-05-01T20:40:30.512Z,6.00
2019-05-01T20:43:13.969Z,6.95
2019-05-01T20:45:49.380Z,3.62
2019-05-01T20:48:23.662Z,7.83
2019-05-01T20:50:52.145Z,6.03
2019-05-01T20:53:23.604Z,4.65
2019-05-01T20:56:00.190Z,6.35
2019-05-01T20:58:32.059Z,5.03
2019-05-01T21:01:04.230Z,4.90
2019-05-01T21:03:37.422Z,4.28
2019-05-01T21:06:22.989Z,5.55
2019-05-01T21:09:02.557Z,4.85
2019-05-01T21:11:42.348Z,5.90
2019-05-01T21:14:22.348Z,5.35
2019-05-01T21:16:46.549Z,6.37
2019-05-01T21:19:18.096Z,6.40
2019-05-01T21:21:49.956Z,4.33
2019-05-01T21:24:24.048Z,3.55
2019-05-01T21:26:56.759Z,4.55
2019-05-01T21:29:28.614Z,3.25
2019-05-01T21:32:03.340Z,4.22
2019-05-01T21:34:34.376Z,4.87
2019-05-01T21:37:06.377Z,3.70
2019-05-01T21:39:38.152Z,2.80
2019-05-01T21:42:12.175Z,7.35
2019-05-01T21:44:44.187Z,3.60
2019-05-01T21:47:15.944Z,4.35
2019-05-01T21:49:48.027Z,5.62
2019-05-01T21:52:25.110Z,4.12
2019-05-01T21:57:29.583Z,3.92
2019-05-01T21:59:59.972Z,3.22
2019-05-01T22:02:31.748Z,4.05
2019-05-01T22:05:04.126Z,4.12
2019-05-01T22:07:37.607Z,5.42
2019-05-01T22:10:09.671Z,4.22
2019-05-01T22:12:43.872Z,7.22
2019-05-01T22:15:16.594Z,3.53
2019-05-01T22:17:52.967Z,2.85
2019-05-01T22:20:26.362Z,3.45
2019-05-01T22:23:02.405Z,2.70
2019-05-01T22:25:38.619Z,3.58
2019-05-01T22:28:14.079Z,3.92
2019-05-01T22:30:47.561Z,2.65
2019-05-01T22:33:19.384Z,3.50
2019-05-01T22:35:52.383Z,4.05
2019-05-01T22:38:23.958Z,5.25
2019-05-01T22:41:05.906Z,7.70
2019-05-01T22:43:30.930Z,4.87
2019-05-01T22:46:03.659Z,5.45
2019-05-01T22:48:35.065Z,7.12
2019-05-01T22:51:08.587Z,5.92
2019-05-01T22:53:40.347Z,4.08
2019-05-01T22:56:12.310Z,9.58
2019-05-01T22:58:44.157Z,4.80
2019-05-01T23:01:18.229Z,3.87
2019-05-01T23:03:51.267Z,4.12
2019-05-01T23:06:23.015Z,5.35
2019-05-01T23:08:54.901Z,8.08
2019-05-01T23:11:28.227Z,4.35
2019-05-01T23:13:59.856Z,7.10
2019-05-01T23:16:33.356Z,6.62
2019-05-01T23:19:05.131Z,4.30
2019-05-01T23:21:36.553Z,4.47
2019-05-01T23:24:08.925Z,6.85
2019-05-01T23:26:40.506Z,4.78
2019-05-01T23:29:12.259Z,5.40
2019-05-01T23:31:44.033Z,9.15
2019-05-01T23:34:15.881Z,5.08
2019-05-01T23:36:47.947Z,11.30
2019-05-01T23:39:19.530Z,6.28
2019-05-01T23:41:51.249Z,6.30
2019-05-01T23:44:23.028Z,5.37
2019-05-01T23:46:54.686Z,5.42
2019-05-01T23:49:26.549Z,5.97
2019-05-01T23:52:03.219Z,9.35
2019-05-01T23:54:31.833Z,5.37
2019-05-01T23:57:05.318Z,8.25
2019-05-01T23:59:37.162Z,6.03
